createdAt,value
2018-03-25T00:02:26.784Z,21.73
2018-03-25T00:04:54.233Z,22.77
2018-03-25T00:07:22.478Z,21.33
2018-03-25T00:09:49.932Z,23.23
2018-03-25T00:12:17.415Z,22.50
2018-03-25T00:14:44.911Z,22.17
2018-03-25T00:17:12.363Z,22.20
2018-03-25T00:19:40.582Z,20.83
2018-03-25T00:22:08.031Z,21.73
2018-03-25T00:24:35.524Z,23.47
2018-03-25T00:27:03.794Z,20.50
2018-03-25T00:29:31.329Z,21.40
2018-03-25T00:31:58.841Z,22.27
2018-03-25T00:34:27.159Z,23.67
2018-03-25T00:36:54.671Z,23.60
2018-03-25T00:39:22.945Z,22.87
2018-03-25T00:41:51.248Z,22.60
2018-03-25T00:44:18.792Z,23.20
2018-03-25T00:46:47.072Z,22.60
2018-03-25T00:49:14.602Z,20.90
2018-03-25T00:51:42.883Z,22.70
2018-03-25T00:54:10.405Z,22.20
2018-03-25T00:56:37.917Z,22.33
2018-03-25T00:59:05.457Z,23.93
2018-03-25T01:01:33.732Z,21.33
2018-03-25T01:04:02.051Z,22.83
2018-03-25T01:06:29.552Z,22.67
2018-03-25T01:08:57.048Z,22.90
2018-03-25T01:11:24.572Z,24.23
2018-03-25T01:13:52.102Z,23.07
2018-03-25T01:16:19.627Z,24.70
2018-03-25T01:18:47.147Z,22.10
2018-03-25T01:21:14.690Z,24.13
2018-03-25T01:23:42.158Z,24.40
2018-03-25T01:26:09.664Z,23.83
2018-03-25T01:28:37.103Z,21.37
2018-03-25T01:31:04.563Z,22.30
2018-03-25T01:33:32.047Z,22.80
2018-03-25T01:35:59.501Z,23.27
2018-03-25T01:38:26.974Z,23.10
2018-03-25T01:40:54.436Z,24.00
2018-03-25T01:43:21.925Z,23.00
2018-03-25T01:45:50.143Z,23.40
2018-03-25T01:48:17.639Z,22.57
2018-03-25T01:50:45.099Z,24.00
2018-03-25T01:53:12.593Z,23.17
2018-03-25T01:55:40.032Z,22.17
2018-03-25T01:58:08.244Z,23.60
2018-03-25T02:00:35.728Z,24.10
2018-03-25T02:03:03.214Z,23.60
2018-03-25T02:05:31.458Z,21.63
2018-03-25T02:07:58.924Z,23.80
2018-03-25T02:10:26.388Z,24.20
2018-03-25T02:12:54.604Z,22.20
2018-03-25T02:15:22.086Z,23.40
2018-03-25T02:17:49.535Z,23.83
2018-03-25T02:20:17.055Z,24.30
2018-03-25T02:22:44.509Z,24.27
2018-03-25T02:25:11.975Z,22.80
2018-03-25T02:27:39.459Z,23.50
2018-03-25T02:30:06.920Z,23.20
2018-03-25T02:32:34.397Z,23.90
2018-03-25T02:35:01.858Z,21.63
2018-03-25T02:37:29.332Z,23.07
2018-03-25T02:39:57.545Z,22.47
2018-03-25T02:42:25.027Z,21.33
2018-03-25T02:44:52.480Z,22.67
2018-03-25T02:47:19.932Z,21.63
2018-03-25T02:49:47.409Z,24.10
2018-03-25T02:52:14.862Z,23.03
2018-03-25T02:54:42.361Z,23.90
2018-03-25T02:57:09.841Z,25.17
2018-03-25T02:59:37.303Z,23.80
2018-03-25T03:02:04.747Z,24.63
2018-03-25T03:04:32.241Z,24.00
2018-03-25T03:06:59.683Z,23.70
2018-03-25T03:09:27.183Z,23.63
2018-03-25T03:11:55.048Z,23.27
2018-03-25T03:14:23.304Z,23.20
2018-03-25T03:16:50.760Z,22.10
2018-03-25T03:19:18.203Z,23.60
2018-03-25T03:21:45.674Z,25.27
2018-03-25T03:24:13.127Z,26.53
2018-03-25T03:26:40.614Z,24.33
2018-03-25T03:29:08.833Z,25.57
2018-03-25T03:31:36.307Z,24.50
2018-03-25T03:34:03.752Z,23.53
2018-03-25T03:36:31.220Z,25.30
2018-03-25T03:38:58.674Z,24.20
2018-03-25T03:41:26.154Z,26.00
2018-03-25T03:43:54.378Z,25.23
2018-03-25T03:46:21.852Z,25.87
2018-03-25T03:48:49.301Z,22.90
2018-03-25T03:51:16.772Z,25.53
2018-03-25T03:53:44.256Z,23.90
2018-03-25T03:56:12.466Z,22.90
2018-03-25T03:58:39.939Z,24.23
2018-03-25T04:01:07.394Z,25.10
2018-03-25T04:03:34.967Z,24.27
2018-03-25T04:06:02.443Z,25.03
2018-03-25T04:08:29.944Z,23.37
2018-03-25T04:10:57.411Z,22.30
2018-03-25T04:13:24.859Z,21.97
2018-03-25T04:15:52.333Z,23.67
2018-03-25T04:18:19.795Z,22.70
2018-03-25T04:20:47.256Z,21.33
2018-03-25T04:23:14.711Z,24.20
2018-03-25T04:25:42.194Z,23.30
2018-03-25T04:28:09.648Z,22.87
2018-03-25T04:30:37.102Z,22.50
2018-03-25T04:33:04.583Z,23.67
2018-03-25T04:35:32.048Z,22.93
2018-03-25T04:38:00.279Z,23.00
2018-03-25T04:40:27.726Z,22.90
2018-03-25T04:42:55.211Z,24.60
2018-03-25T04:45:22.658Z,23.37
2018-03-25T04:47:50.111Z,21.60
2018-03-25T04:50:17.664Z,23.67
2018-03-25T04:52:45.115Z,24.80
2018-03-25T04:55:12.592Z,23.50
2018-03-25T04:57:40.051Z,22.23
2018-03-25T05:00:07.547Z,24.43
2018-03-25T05:02:34.994Z,23.60
2018-03-25T05:05:02.487Z,21.87
2018-03-25T05:07:29.939Z,23.70
2018-03-25T05:09:57.418Z,25.10
2018-03-25T05:12:24.868Z,24.70
2018-03-25T05:14:52.337Z,25.40
2018-03-25T05:17:20.595Z,23.63
2018-03-25T05:19:48.071Z,22.30
2018-03-25T05:22:15.543Z,24.50
2018-03-25T05:24:43.779Z,23.00
2018-03-25T05:27:11.260Z,21.87
2018-03-25T05:29:38.711Z,22.47
2018-03-25T05:32:06.183Z,23.37
2018-03-25T05:34:33.635Z,24.30
2018-03-25T05:37:01.115Z,22.83
2018-03-25T05:39:29.339Z,23.70
2018-03-25T05:41:56.796Z,23.00
2018-03-25T05:44:24.282Z,24.03
2018-03-25T05:46:53.241Z,21.43
2018-03-25T05:49:20.707Z,21.87
2018-03-25T05:51:48.178Z,23.43
2018-03-25T05:54:15.635Z,20.87
2018-03-25T05:56:43.116Z,23.53
2018-03-25T05:59:11.362Z,24.17
2018-03-25T06:01:38.806Z,23.10
2018-03-25T06:04:06.283Z,21.70
2018-03-25T06:06:33.754Z,22.50
2018-03-25T06:09:01.993Z,23.40
2018-03-25T06:11:29.455Z,22.47
2018-03-25T06:13:56.905Z,22.07
2018-03-25T06:16:24.375Z,24.60
2018-03-25T06:18:51.837Z,22.10
2018-03-25T06:21:19.319Z,25.83
2018-03-25T06:23:47.536Z,23.13
2018-03-25T06:26:15.015Z,24.83
2018-03-25T06:28:42.466Z,25.77
2018-03-25T06:31:09.923Z,25.23
2018-03-25T06:33:37.404Z,27.90
2018-03-25T06:36:05.618Z,26.20
2018-03-25T06:38:33.115Z,27.23
2018-03-25T06:41:00.541Z,24.93
2018-03-25T06:43:28.008Z,25.33
2018-03-25T06:45:55.458Z,28.57
2018-03-25T06:48:22.962Z,26.60
2018-03-25T06:50:51.176Z,26.40
2018-03-25T06:53:18.654Z,26.80
2018-03-25T06:55:46.107Z,28.63
2018-03-25T06:58:13.596Z,25.30
2018-03-25T07:00:41.064Z,27.13
2018-03-25T07:03:09.315Z,26.40
2018-03-25T07:05:36.788Z,26.87
2018-03-25T07:08:05.014Z,25.30
2018-03-25T07:10:32.491Z,25.80
2018-03-25T07:12:59.962Z,25.47
2018-03-25T07:15:27.440Z,27.90
2018-03-25T07:17:55.690Z,27.40
2018-03-25T07:20:23.195Z,26.50
2018-03-25T07:22:50.640Z,27.60
2018-03-25T07:25:18.140Z,25.50
2018-03-25T07:27:45.588Z,27.40
2018-03-25T07:30:13.056Z,27.90
2018-03-25T07:32:40.507Z,27.50
2018-03-25T07:35:07.963Z,26.00
2018-03-25T07:37:35.448Z,24.80
2018-03-25T07:40:03.007Z,25.57
2018-03-25T07:42:30.500Z,27.03
2018-03-25T07:44:57.959Z,28.80
2018-03-25T07:47:25.446Z,26.03
2018-03-25T07:49:52.964Z,25.10
2018-03-25T07:52:20.378Z,26.53
2018-03-25T07:54:47.829Z,28.50
2018-03-25T07:57:15.306Z,29.83
2018-03-25T07:59:43.022Z,24.60
2018-03-25T08:02:10.469Z,25.53
2018-03-25T08:04:37.961Z,28.37
2018-03-25T08:07:05.398Z,28.07
2018-03-25T08:09:32.874Z,25.27
2018-03-25T08:12:00.352Z,26.00
2018-03-25T08:14:27.839Z,26.33
2018-03-25T08:16:55.297Z,27.03
2018-03-25T08:19:22.787Z,25.90
2018-03-25T08:21:50.244Z,26.00
2018-03-25T08:24:17.738Z,25.80
2018-03-25T08:26:45.238Z,27.43
2018-03-25T08:29:12.689Z,26.70
2018-03-25T08:31:40.175Z,29.40
2018-03-25T08:34:07.647Z,27.37
2018-03-25T08:36:35.196Z,27.00
2018-03-25T08:39:02.749Z,26.40
2018-03-25T08:41:30.301Z,28.17
2018-03-25T08:43:57.804Z,26.47
2018-03-25T08:46:26.120Z,29.20
2018-03-25T08:48:53.640Z,27.60
2018-03-25T08:51:21.965Z,26.03
2018-03-25T08:53:49.477Z,28.00
2018-03-25T08:56:17.752Z,23.53
2018-03-25T08:58:46.062Z,25.57
2018-03-25T09:01:13.581Z,27.77
2018-03-25T09:03:41.912Z,25.27
2018-03-25T09:06:09.451Z,27.30
2018-03-25T09:08:36.985Z,26.40
2018-03-25T09:11:05.268Z,25.37
2018-03-25T09:13:32.791Z,23.20
2018-03-25T09:16:00.346Z,25.40
2018-03-25T09:18:27.852Z,23.63
2018-03-25T09:20:55.364Z,26.23
2018-03-25T09:23:22.892Z,25.00
2018-03-25T09:25:50.419Z,24.20
2018-03-25T09:28:17.966Z,24.97
2018-03-25T09:30:46.244Z,26.73
2018-03-25T09:33:13.785Z,23.93
2018-03-25T09:35:42.062Z,24.43
2018-03-25T09:38:10.480Z,25.20
2018-03-25T09:40:38.044Z,25.20
2018-03-25T09:43:05.602Z,24.23
2018-03-25T09:45:33.123Z,27.67
2018-03-25T09:48:01.415Z,24.80
2018-03-25T09:50:28.946Z,23.33
2018-03-25T09:52:57.224Z,24.57
2018-03-25T09:55:25.532Z,22.30
2018-03-25T09:57:53.050Z,23.93
2018-03-25T10:00:26.432Z,25.60
2018-03-25T10:02:58.817Z,22.00
2018-03-25T10:05:27.144Z,24.73
2018-03-25T10:07:54.672Z,23.20
2018-03-25T10:10:23.011Z,20.20
2018-03-25T10:12:50.533Z,23.70
2018-03-25T10:15:18.090Z,22.77
2018-03-25T10:17:45.656Z,25.20
2018-03-25T10:20:13.178Z,24.40
2018-03-25T10:22:41.488Z,23.70
2018-03-25T10:25:09.007Z,25.40
2018-03-25T10:27:37.325Z,24.30
2018-03-25T10:30:04.855Z,24.17
2018-03-25T10:32:32.407Z,23.60
2018-03-25T10:35:00.689Z,25.67
2018-03-25T10:37:28.225Z,22.87
2018-03-25T10:39:56.497Z,24.60
2018-03-25T10:42:24.801Z,22.47
2018-03-25T10:44:52.297Z,23.40
2018-03-25T10:47:19.832Z,25.57
2018-03-25T10:49:47.354Z,22.50
2018-03-25T10:52:15.692Z,25.17
2018-03-25T10:54:43.214Z,26.30
2018-03-25T10:57:10.717Z,26.87
2018-03-25T10:59:38.248Z,23.37
2018-03-25T11:02:05.786Z,21.60
2018-03-25T11:04:33.348Z,24.43
2018-03-25T11:07:00.841Z,22.73
2018-03-25T11:09:28.387Z,22.07
2018-03-25T11:11:55.918Z,24.60
2018-03-25T11:14:23.466Z,24.17
2018-03-25T11:16:51.745Z,21.43
2018-03-25T11:19:19.337Z,21.07
2018-03-25T11:21:46.861Z,22.50
2018-03-25T11:24:14.392Z,22.77
2018-03-25T11:26:41.921Z,22.37
2018-03-25T11:29:09.484Z,24.00
2018-03-25T11:31:37.010Z,22.87
2018-03-25T11:34:04.568Z,20.53
2018-03-25T11:36:32.150Z,22.20
2018-03-25T11:38:59.698Z,24.80
2018-03-25T11:41:27.256Z,20.10
2018-03-25T11:43:54.777Z,19.87
2018-03-25T11:46:23.092Z,20.03
2018-03-25T11:48:50.622Z,20.07
2018-03-25T11:51:18.161Z,20.23
2018-03-25T11:53:47.155Z,21.37
2018-03-25T11:56:15.451Z,21.50
2018-03-25T11:58:43.093Z,22.10
2018-03-25T12:01:11.425Z,20.57
2018-03-25T12:03:38.952Z,20.10
2018-03-25T12:06:06.457Z,19.50
2018-03-25T12:08:33.986Z,18.37
2018-03-25T12:11:01.520Z,20.17
2018-03-25T12:13:29.068Z,18.47
2018-03-25T12:15:57.340Z,17.60
2018-03-25T12:18:25.646Z,18.60
2018-03-25T12:20:53.180Z,17.30
2018-03-25T12:23:20.688Z,19.37
2018-03-25T12:25:48.237Z,17.40
2018-03-25T12:28:15.751Z,18.30
2018-03-25T12:30:44.048Z,15.87
2018-03-25T12:33:11.569Z,16.97
2018-03-25T12:35:39.848Z,18.80
2018-03-25T12:38:08.137Z,22.10
2018-03-25T12:40:35.670Z,19.50
2018-03-25T12:43:03.184Z,21.97
2018-03-25T12:45:30.714Z,23.13
2018-03-25T12:47:58.249Z,21.57
2018-03-25T12:50:26.533Z,20.90
2018-03-25T12:52:54.837Z,22.60
2018-03-25T12:55:22.368Z,21.47
2018-03-25T12:57:50.673Z,19.77
2018-03-25T13:00:18.188Z,18.40
2018-03-25T13:02:46.494Z,20.20
2018-03-25T13:05:14.035Z,17.73
2018-03-25T13:07:42.342Z,18.90
2018-03-25T13:10:09.848Z,16.33
2018-03-25T13:12:37.403Z,11.33
2018-03-25T13:15:06.436Z,14.73
2018-03-25T13:17:33.980Z,16.70
2018-03-25T13:20:02.268Z,15.30
2018-03-25T13:22:29.892Z,15.83
2018-03-25T13:24:57.400Z,17.97
2018-03-25T13:27:24.960Z,18.50
2018-03-25T13:29:52.552Z,19.30
2018-03-25T13:32:20.093Z,20.13
2018-03-25T13:34:47.649Z,17.03
2018-03-25T13:37:15.181Z,17.17
2018-03-25T13:39:42.698Z,17.23
2018-03-25T13:42:11.009Z,17.47
2018-03-25T13:44:38.516Z,16.43
2018-03-25T13:47:06.052Z,18.50
2018-03-25T13:49:33.605Z,18.50
2018-03-25T13:52:01.137Z,16.60
2018-03-25T13:54:29.474Z,21.63
2018-03-25T13:56:57.015Z,17.83
2018-03-25T13:59:24.540Z,14.70
2018-03-25T14:01:52.101Z,16.77
2018-03-25T14:04:19.604Z,18.90
2018-03-25T14:06:47.127Z,17.50
2018-03-25T14:09:14.633Z,18.10
2018-03-25T14:11:42.176Z,15.57
2018-03-25T14:14:09.692Z,16.90
2018-03-25T14:16:37.244Z,15.40
2018-03-25T14:19:04.790Z,15.70
2018-03-25T14:21:33.076Z,16.07
2018-03-25T14:24:00.626Z,16.17
2018-03-25T14:26:28.143Z,14.33
2018-03-25T14:28:55.686Z,16.37
2018-03-25T14:31:23.207Z,16.40
2018-03-25T14:33:50.739Z,14.50
2018-03-25T14:36:19.009Z,14.77
2018-03-25T14:38:46.573Z,15.27
2018-03-25T14:41:14.866Z,17.27
2018-03-25T14:43:43.220Z,16.73
2018-03-25T14:46:10.741Z,17.20
2018-03-25T14:48:38.298Z,16.90
2018-03-25T14:51:05.876Z,16.50
2018-03-25T14:53:33.398Z,16.50
2018-03-25T14:56:00.935Z,14.87
2018-03-25T14:58:29.232Z,14.87
2018-03-25T15:00:56.793Z,15.57
2018-03-25T15:03:24.307Z,16.23
2018-03-25T15:05:51.993Z,17.57
2018-03-25T15:08:19.493Z,14.93
2018-03-25T15:10:47.039Z,18.43
2018-03-25T15:13:14.589Z,18.50
2018-03-25T15:15:42.123Z,17.70
2018-03-25T15:18:09.666Z,16.27
2018-03-25T15:20:37.997Z,15.27
2018-03-25T15:23:05.504Z,16.27
2018-03-25T15:25:33.813Z,15.00
2018-03-25T15:28:01.350Z,16.40
2018-03-25T15:30:28.907Z,15.57
2018-03-25T15:32:57.187Z,18.37
2018-03-25T15:35:25.620Z,15.33
2018-03-25T15:37:53.188Z,15.50
2018-03-25T15:40:20.708Z,17.20
2018-03-25T15:42:48.285Z,18.90
2018-03-25T15:45:15.798Z,17.63
2018-03-25T15:47:43.365Z,14.30
2018-03-25T15:50:10.869Z,14.70
2018-03-25T15:52:38.420Z,14.93
2018-03-25T15:55:05.944Z,17.37
2018-03-25T15:57:33.474Z,15.67
2018-03-25T16:00:01.780Z,19.80
2018-03-25T16:02:29.369Z,18.77
2018-03-25T16:04:56.888Z,17.50
2018-03-25T16:07:24.413Z,16.67
2018-03-25T16:09:52.752Z,16.17
2018-03-25T16:12:20.227Z,18.23
2018-03-25T16:14:47.716Z,18.70
2018-03-25T16:17:15.957Z,15.40
2018-03-25T16:19:43.431Z,17.87
2018-03-25T16:22:10.902Z,19.37
2018-03-25T16:24:39.165Z,19.17
2018-03-25T16:27:07.385Z,15.07
2018-03-25T16:29:34.899Z,12.93
2018-03-25T16:32:02.380Z,15.30
2018-03-25T16:34:30.618Z,17.13
2018-03-25T16:36:58.109Z,18.73
2018-03-25T16:39:25.653Z,16.00
2018-03-25T16:41:53.132Z,16.57
2018-03-25T16:44:20.624Z,19.53
2018-03-25T16:46:48.091Z,15.53
2018-03-25T16:49:15.553Z,15.47
2018-03-25T16:51:43.071Z,18.77
2018-03-25T16:54:10.542Z,19.17
2018-03-25T16:56:38.048Z,17.07
2018-03-25T16:59:05.499Z,15.67
2018-03-25T17:01:33.006Z,17.77
2018-03-25T17:04:00.506Z,18.10
2018-03-25T17:06:28.747Z,18.90
2018-03-25T17:08:56.223Z,9.90
2018-03-25T17:11:23.718Z,12.23
2018-03-25T17:13:51.939Z,14.23
2018-03-25T17:16:19.412Z,19.67
2018-03-25T17:18:46.890Z,19.20
2018-03-25T17:21:15.153Z,18.10
2018-03-25T17:23:42.655Z,19.63
2018-03-25T17:26:10.133Z,17.63
2018-03-25T17:28:37.645Z,18.17
2018-03-25T17:31:05.889Z,16.87
2018-03-25T17:33:33.382Z,16.97
2018-03-25T17:36:01.597Z,18.37
2018-03-25T17:38:29.117Z,18.77
2018-03-25T17:40:57.345Z,18.77
2018-03-25T17:43:24.854Z,18.43
2018-03-25T17:45:53.082Z,20.70
2018-03-25T17:48:20.611Z,24.00
2018-03-25T17:50:48.134Z,19.53
2018-03-25T17:53:16.372Z,18.57
2018-03-25T17:55:43.894Z,18.80
2018-03-25T17:58:11.365Z,16.23
2018-03-25T18:00:38.846Z,18.43
2018-03-25T18:03:06.348Z,17.70
2018-03-25T18:05:34.596Z,17.67
2018-03-25T18:08:03.614Z,18.30
2018-03-25T18:10:31.102Z,19.03
2018-03-25T18:12:58.581Z,18.50
2018-03-25T18:15:26.069Z,17.63
2018-03-25T18:17:54.342Z,18.93
2018-03-25T18:20:22.603Z,17.70
2018-03-25T18:22:50.093Z,18.90
2018-03-25T18:25:17.632Z,18.20
2018-03-25T18:27:45.878Z,18.53
2018-03-25T18:30:13.340Z,17.70
2018-03-25T18:32:42.385Z,17.90
2018-03-25T18:35:09.850Z,18.60
2018-03-25T18:37:37.334Z,19.10
2018-03-25T18:40:04.796Z,17.03
2018-03-25T18:42:32.282Z,18.57
2018-03-25T18:45:00.533Z,19.53
2018-03-25T18:47:28.050Z,19.20
2018-03-25T18:49:55.509Z,18.87
2018-03-25T18:52:22.981Z,19.83
2018-03-25T18:54:50.488Z,19.20
2018-03-25T18:57:18.734Z,20.33
2018-03-25T18:59:46.239Z,19.50
2018-03-25T19:02:13.771Z,20.60
2018-03-25T19:04:42.049Z,20.40
2018-03-25T19:07:09.552Z,19.60
2018-03-25T19:09:37.031Z,19.70
2018-03-25T19:12:04.502Z,20.40
2018-03-25T19:14:32.032Z,20.63
2018-03-25T19:16:59.508Z,21.67
2018-03-25T19:19:27.071Z,21.40
2018-03-25T19:21:54.519Z,21.70
2018-03-25T19:24:22.093Z,21.40
2018-03-25T19:26:50.379Z,21.67
2018-03-25T19:29:17.886Z,20.50
2018-03-25T19:31:45.372Z,21.13
2018-03-25T19:34:12.904Z,20.37
2018-03-25T19:36:40.419Z,20.87
2018-03-25T19:39:08.678Z,21.23
2018-03-25T19:41:36.165Z,21.13
2018-03-25T19:44:03.702Z,20.27
2018-03-25T19:46:31.960Z,20.50
2018-03-25T19:48:59.499Z,19.93
2018-03-25T19:51:26.970Z,19.03
2018-03-25T19:53:54.509Z,21.53
2018-03-25T19:56:21.999Z,18.20
2018-03-25T19:58:49.507Z,19.50
2018-03-25T20:01:17.004Z,19.23
2018-03-25T20:03:44.488Z,20.33
2018-03-25T20:06:12.748Z,19.47
2018-03-25T20:08:41.011Z,20.80
2018-03-25T20:11:08.499Z,21.23
2018-03-25T20:13:35.986Z,20.63
2018-03-25T20:16:03.491Z,20.63
2018-03-25T20:18:31.735Z,20.50
2018-03-25T20:20:59.249Z,20.70
2018-03-25T20:23:26.740Z,21.27
2018-03-25T20:25:54.284Z,19.73
2018-03-25T20:28:21.787Z,19.57
2018-03-25T20:30:49.260Z,19.77
2018-03-25T20:33:17.567Z,20.13
2018-03-25T20:35:45.065Z,20.50
2018-03-25T20:38:12.572Z,27.60
2018-03-25T20:40:40.039Z,26.63
2018-03-25T20:43:07.536Z,29.07
2018-03-25T20:45:35.016Z,31.47
2018-03-25T20:48:03.277Z,30.73
2018-03-25T20:50:30.790Z,33.03
2018-03-25T20:52:58.302Z,30.80
2018-03-25T20:55:25.805Z,26.33
2018-03-25T20:57:53.273Z,24.40
2018-03-25T21:00:20.768Z,23.43
2018-03-25T21:02:49.000Z,22.80
2018-03-25T21:05:16.495Z,22.63
2018-03-25T21:07:44.004Z,22.10
2018-03-25T21:10:11.498Z,22.30
2018-03-25T21:12:38.959Z,24.20
2018-03-25T21:15:06.475Z,22.73
2018-03-25T21:17:33.933Z,23.00
2018-03-25T21:20:01.419Z,22.00
2018-03-25T21:22:28.947Z,19.97
2018-03-25T21:24:56.443Z,20.87
2018-03-25T21:27:24.709Z,21.40
2018-03-25T21:29:52.164Z,21.47
2018-03-25T21:32:19.675Z,20.50
2018-03-25T21:34:47.902Z,19.30
2018-03-25T21:37:16.899Z,21.67
2018-03-25T21:39:44.360Z,21.10
2018-03-25T21:42:11.830Z,20.40
2018-03-25T21:44:40.091Z,19.87
2018-03-25T21:47:07.573Z,20.63
2018-03-25T21:49:35.860Z,19.10
2018-03-25T21:52:04.482Z,19.20
2018-03-25T21:54:32.816Z,19.20
2018-03-25T21:57:01.049Z,21.60
2018-03-25T21:59:28.542Z,20.77
2018-03-25T22:01:57.153Z,20.40
2018-03-25T22:04:24.648Z,19.27
2018-03-25T22:06:52.145Z,20.57
2018-03-25T22:09:20.452Z,19.53
2018-03-25T22:11:47.939Z,20.53
2018-03-25T22:14:15.397Z,21.27
2018-03-25T22:16:44.390Z,21.50
2018-03-25T22:19:12.078Z,20.37
2018-03-25T22:21:40.294Z,20.47
2018-03-25T22:24:07.774Z,21.67
2018-03-25T22:26:35.236Z,20.60
2018-03-25T22:29:02.706Z,21.57
2018-03-25T22:31:30.931Z,21.47
2018-03-25T22:33:58.619Z,21.80
2018-03-25T22:36:26.149Z,21.77
2018-03-25T22:38:53.668Z,21.70
2018-03-25T22:41:21.928Z,23.20
2018-03-25T22:43:50.155Z,19.97
2018-03-25T22:46:17.612Z,20.83
2018-03-25T22:48:45.121Z,20.00
2018-03-25T22:51:13.340Z,21.10
2018-03-25T22:53:40.813Z,20.30
2018-03-25T22:56:08.262Z,21.47
2018-03-25T22:58:35.758Z,21.67
2018-03-25T23:01:03.248Z,21.07
2018-03-25T23:03:30.722Z,21.20
2018-03-25T23:05:58.207Z,21.23
2018-03-25T23:08:25.659Z,22.70
2018-03-25T23:10:53.151Z,21.97
2018-03-25T23:13:21.368Z,21.77
2018-03-25T23:15:48.867Z,20.93
2018-03-25T23:18:16.328Z,20.17
2018-03-25T23:20:43.800Z,20.13
2018-03-25T23:23:12.009Z,20.90
2018-03-25T23:25:39.458Z,20.40
2018-03-25T23:28:06.940Z,22.20
2018-03-25T23:30:34.415Z,20.20
2018-03-25T23:33:01.908Z,21.17
2018-03-25T23:35:30.120Z,21.17
2018-03-25T23:37:57.614Z,22.10
2018-03-25T23:40:25.828Z,19.37
2018-03-25T23:42:53.305Z,21.00
2018-03-25T23:45:20.754Z,22.40
2018-03-25T23:47:48.233Z,20.80
2018-03-25T23:50:15.698Z,20.30
2018-03-25T23:52:43.183Z,22.80
2018-03-25T23:55:11.399Z,21.73
2018-03-25T23:57:39.764Z,22.07
